createdAt,value
2018-06-08T00:01:24.932Z,16.35
2018-06-08T00:03:55.205Z,16.10
2018-06-08T00:06:23.469Z,15.48
2018-06-08T00:08:51.701Z,16.10
2018-06-08T00:11:19.955Z,16.40
2018-06-08T00:13:48.316Z,16.12
2018-06-08T00:16:16.603Z,16.97
2018-06-08T00:18:44.857Z,16.50
2018-06-08T00:21:13.129Z,16.93
2018-06-08T00:23:41.363Z,17.42
2018-06-08T00:26:09.593Z,18.27
2018-06-08T00:28:37.848Z,17.60
2018-06-08T00:31:06.087Z,18.45
2018-06-08T00:33:34.362Z,19.50
2018-06-08T00:36:02.611Z,20.80
2018-06-08T00:38:30.872Z,21.53
2018-06-08T00:40:59.152Z,20.37
2018-06-08T00:43:27.390Z,21.15
2018-06-08T00:45:55.390Z,24.20
2018-06-08T00:48:23.611Z,25.72
2018-06-08T00:50:51.886Z,28.90
2018-06-08T00:53:20.143Z,30.30
2018-06-08T00:55:48.401Z,30.12
2018-06-08T00:58:16.619Z,31.60
2018-06-08T01:00:44.856Z,31.90
2018-06-08T01:03:13.129Z,33.78
2018-06-08T01:05:41.405Z,32.35
2018-06-08T01:08:09.657Z,32.20
2018-06-08T01:10:37.910Z,33.20
2018-06-08T01:13:06.205Z,35.50
2018-06-08T01:15:34.472Z,36.10
2018-06-08T01:18:02.723Z,37.63
2018-06-08T01:20:30.955Z,37.88
2018-06-08T01:22:59.219Z,39.45
2018-06-08T01:25:27.443Z,38.45
2018-06-08T01:27:55.722Z,38.33
2018-06-08T01:30:23.995Z,39.30
2018-06-08T01:32:52.238Z,41.10
2018-06-08T01:35:20.515Z,42.43
2018-06-08T01:37:48.770Z,44.48
2018-06-08T01:40:17.082Z,44.13
2018-06-08T01:42:45.358Z,44.30
2018-06-08T01:45:13.600Z,45.07
2018-06-08T01:47:42.000Z,45.00
2018-06-08T01:50:10.258Z,47.17
2018-06-08T01:52:38.534Z,47.27
2018-06-08T01:55:06.790Z,47.75
2018-06-08T01:57:35.043Z,50.20
2018-06-08T02:00:03.309Z,50.17
2018-06-08T02:02:31.617Z,48.80
2018-06-08T02:04:59.577Z,49.08
2018-06-08T02:07:27.827Z,49.75
2018-06-08T02:09:56.077Z,49.77
2018-06-08T02:12:24.288Z,51.10
2018-06-08T02:14:52.570Z,49.75
2018-06-08T02:17:20.804Z,50.38
2018-06-08T02:19:49.056Z,51.40
2018-06-08T02:22:17.346Z,49.18
2018-06-08T02:24:45.597Z,50.43
2018-06-08T02:27:13.595Z,48.65
2018-06-08T02:29:41.898Z,48.92
2018-06-08T02:32:10.149Z,50.08
2018-06-08T02:34:38.372Z,47.98
2018-06-08T02:37:06.650Z,49.15
2018-06-08T02:39:34.911Z,48.90
2018-06-08T02:42:03.166Z,49.42
2018-06-08T02:44:31.446Z,49.65
2018-06-08T02:46:59.716Z,48.70
2018-06-08T02:49:27.992Z,49.63
2018-06-08T02:51:56.264Z,49.30
2018-06-08T02:54:24.475Z,49.88
2018-06-08T02:56:52.806Z,48.65
2018-06-08T02:59:21.035Z,49.10
2018-06-08T03:01:49.020Z,50.03
2018-06-08T03:04:17.311Z,48.90
2018-06-08T03:06:45.570Z,49.95
2018-06-08T03:09:13.816Z,49.65
2018-06-08T03:11:42.180Z,49.90
2018-06-08T03:14:10.435Z,49.60
2018-06-08T03:16:38.712Z,50.65
2018-06-08T03:19:06.993Z,50.48
2018-06-08T03:21:35.246Z,49.80
2018-06-08T03:24:03.504Z,51.48
2018-06-08T03:26:31.509Z,50.78
2018-06-08T03:28:59.735Z,51.00
2018-06-08T03:31:28.050Z,50.78
2018-06-08T03:33:56.300Z,50.45
2018-06-08T03:36:24.521Z,50.50
2018-06-08T03:38:52.821Z,50.30
2018-06-08T03:41:21.084Z,51.50
2018-06-08T03:43:49.352Z,50.73
2018-06-08T03:46:17.571Z,52.48
2018-06-08T03:48:45.828Z,52.85
2018-06-08T03:51:14.072Z,51.30
2018-06-08T03:53:42.363Z,51.33
2018-06-08T03:56:10.361Z,53.42
2018-06-08T03:58:38.631Z,52.03
2018-06-08T04:01:06.975Z,51.63
2018-06-08T04:03:35.230Z,52.40
2018-06-08T04:06:03.480Z,51.88
2018-06-08T04:08:31.758Z,50.80
2018-06-08T04:11:00.009Z,51.00
2018-06-08T04:13:28.259Z,52.50
2018-06-08T04:15:56.250Z,52.35
2018-06-08T04:18:24.539Z,51.85
2018-06-08T04:20:52.764Z,52.65
2018-06-08T04:23:20.994Z,53.10
2018-06-08T04:25:49.315Z,53.17
2018-06-08T04:28:17.274Z,54.80
2018-06-08T04:30:45.538Z,53.52
2018-06-08T04:33:15.008Z,53.05
2018-06-08T04:35:43.312Z,55.98
2018-06-08T04:38:11.572Z,55.20
2018-06-08T04:40:39.847Z,56.80
2018-06-08T04:43:08.139Z,56.35
2018-06-08T04:45:36.394Z,58.52
2018-06-08T04:48:04.661Z,55.60
2018-06-08T04:50:32.949Z,59.38
2018-06-08T04:53:01.207Z,55.63
2018-06-08T04:55:29.480Z,56.33
2018-06-08T04:57:57.784Z,55.95
2018-06-08T05:00:26.023Z,55.87
2018-06-08T05:02:54.283Z,54.20
2018-06-08T05:05:22.551Z,54.88
2018-06-08T05:07:50.826Z,53.42
2018-06-08T05:10:19.088Z,53.48
2018-06-08T05:12:47.359Z,53.20
2018-06-08T05:15:15.614Z,53.08
2018-06-08T05:17:43.911Z,53.38
2018-06-08T05:20:12.147Z,52.93
2018-06-08T05:22:40.431Z,53.87
2018-06-08T05:25:08.683Z,52.85
2018-06-08T05:27:36.895Z,52.23
2018-06-08T05:30:09.371Z,51.02
2018-06-08T05:32:37.635Z,49.93
2018-06-08T05:35:05.900Z,51.65
2018-06-08T05:37:34.232Z,47.30
2018-06-08T05:40:02.487Z,44.98
2018-06-08T05:42:30.801Z,47.43
2018-06-08T05:44:59.058Z,46.85
2018-06-08T05:47:27.337Z,45.78
2018-06-08T05:49:55.329Z,44.80
2018-06-08T05:52:23.575Z,43.95
2018-06-08T05:54:51.852Z,44.13
2018-06-08T05:57:20.114Z,45.03
2018-06-08T05:59:48.371Z,43.45
2018-06-08T06:02:16.351Z,44.37
2018-06-08T06:04:44.611Z,41.23
2018-06-08T06:07:12.894Z,41.42
2018-06-08T06:09:41.186Z,40.45
2018-06-08T06:12:09.446Z,39.60
2018-06-08T06:14:37.679Z,38.70
2018-06-08T06:17:06.030Z,39.08
2018-06-08T06:19:34.271Z,39.67
2018-06-08T06:22:02.658Z,39.95
2018-06-08T06:24:30.922Z,37.48
2018-06-08T06:26:59.154Z,38.75
2018-06-08T06:29:27.400Z,40.20
2018-06-08T06:31:55.690Z,40.15
2018-06-08T06:34:23.982Z,39.33
2018-06-08T06:36:52.291Z,40.00
2018-06-08T06:39:20.302Z,38.60
2018-06-08T06:41:48.611Z,38.38
2018-06-08T06:44:16.856Z,38.58
2018-06-08T06:46:45.109Z,38.33
2018-06-08T06:49:13.449Z,39.03
2018-06-08T06:51:41.736Z,38.20
2018-06-08T06:54:10.044Z,38.65
2018-06-08T06:56:38.344Z,36.93
2018-06-08T06:59:06.572Z,37.13
2018-06-08T07:01:34.852Z,38.87
2018-06-08T07:04:03.130Z,37.63
2018-06-08T07:06:31.374Z,36.75
2018-06-08T07:08:59.685Z,38.05
2018-06-08T07:11:27.934Z,37.40
2018-06-08T07:13:56.191Z,37.95
2018-06-08T07:16:24.416Z,39.08
2018-06-08T07:18:52.669Z,39.55
2018-06-08T07:21:20.938Z,39.98
2018-06-08T07:23:49.167Z,43.85
2018-06-08T07:26:17.153Z,43.95
2018-06-08T07:28:45.396Z,44.60
2018-06-08T07:31:13.640Z,44.60
2018-06-08T07:33:41.912Z,43.28
2018-06-08T07:36:10.160Z,43.63
2018-06-08T07:38:38.401Z,44.55
2018-06-08T07:41:06.682Z,43.65
2018-06-08T07:43:34.677Z,45.70
2018-06-08T07:46:02.965Z,45.92
2018-06-08T07:48:31.243Z,44.00
2018-06-08T07:50:59.244Z,44.33
2018-06-08T07:53:27.516Z,43.13
2018-06-08T07:55:55.546Z,40.43
2018-06-08T07:58:23.773Z,41.23
2018-06-08T08:00:52.015Z,38.87
2018-06-08T08:03:20.277Z,40.00
2018-06-08T08:05:48.516Z,39.70
2018-06-08T08:08:17.613Z,39.95
2018-06-08T08:10:45.869Z,39.98
2018-06-08T08:13:14.475Z,39.53
2018-06-08T08:15:42.711Z,40.12
2018-06-08T08:18:10.712Z,40.00
2018-06-08T08:20:38.971Z,40.33
2018-06-08T08:23:07.243Z,39.53
2018-06-08T08:25:35.503Z,39.80
2018-06-08T08:28:03.779Z,39.23
2018-06-08T08:30:32.066Z,37.15
2018-06-08T08:33:00.299Z,39.83
2018-06-08T08:35:28.543Z,40.38
2018-06-08T08:37:56.823Z,38.58
2018-06-08T08:40:25.077Z,41.00
2018-06-08T08:42:53.295Z,38.55
2018-06-08T08:45:21.587Z,39.98
2018-06-08T08:47:49.570Z,40.50
2018-06-08T08:50:17.846Z,41.05
2018-06-08T08:52:46.098Z,39.45
2018-06-08T08:55:14.333Z,39.20
2018-06-08T08:57:42.639Z,41.50
2018-06-08T09:00:10.875Z,41.10
2018-06-08T09:02:39.154Z,40.78
2018-06-08T09:05:07.493Z,42.17
2018-06-08T09:07:35.795Z,42.35
2018-06-08T09:10:04.234Z,42.67
2018-06-08T09:12:32.521Z,42.38
2018-06-08T09:15:00.779Z,42.95
2018-06-08T09:17:29.037Z,42.20
2018-06-08T09:19:57.311Z,43.68
2018-06-08T09:22:25.592Z,44.25
2018-06-08T09:24:53.809Z,44.33
2018-06-08T09:27:22.105Z,45.78
2018-06-08T09:29:50.358Z,46.23
2018-06-08T09:32:18.602Z,45.83
2018-06-08T09:34:46.889Z,48.90
2018-06-08T09:37:15.155Z,47.55
2018-06-08T09:39:43.426Z,48.37
2018-06-08T09:42:11.719Z,50.75
2018-06-08T09:44:39.951Z,50.00
2018-06-08T09:47:08.189Z,52.33
2018-06-08T09:49:36.488Z,49.23
2018-06-08T09:52:04.701Z,50.33
2018-06-08T09:54:32.954Z,48.68
2018-06-08T09:57:01.190Z,47.43
2018-06-08T09:59:29.463Z,46.00
2018-06-08T10:01:57.735Z,45.78
2018-06-08T10:04:25.981Z,45.67
2018-06-08T10:06:54.242Z,45.12
2018-06-08T10:09:22.544Z,45.98
2018-06-08T10:11:50.799Z,47.00
2018-06-08T10:14:19.023Z,47.43
2018-06-08T10:16:47.312Z,48.10
2018-06-08T10:19:15.602Z,48.80
2018-06-08T10:21:43.866Z,49.33
2018-06-08T10:24:12.169Z,49.03
2018-06-08T10:26:40.403Z,51.25
2018-06-08T10:29:08.690Z,49.95
2018-06-08T10:31:36.961Z,49.18
2018-06-08T10:34:04.977Z,51.13
2018-06-08T10:36:32.931Z,51.58
2018-06-08T10:39:01.175Z,50.27
2018-06-08T10:41:29.444Z,52.65
2018-06-08T10:43:57.704Z,56.00
2018-06-08T10:46:25.970Z,56.77
2018-06-08T10:48:53.972Z,61.75
2018-06-08T10:51:22.231Z,60.28
2018-06-08T10:53:50.485Z,63.00
2018-06-08T10:56:19.712Z,66.60
2018-06-08T10:58:48.016Z,66.82
2018-06-08T11:01:16.292Z,69.95
2018-06-08T11:03:44.594Z,78.83
2018-06-08T11:06:12.882Z,77.03
2018-06-08T11:08:41.138Z,76.90
2018-06-08T11:11:09.402Z,68.78
2018-06-08T11:13:37.675Z,73.55
2018-06-08T11:16:05.884Z,72.27
2018-06-08T11:18:34.198Z,77.05
2018-06-08T11:21:02.443Z,76.63
2018-06-08T11:23:30.694Z,73.40
2018-06-08T11:25:58.948Z,75.08
2018-06-08T11:28:27.225Z,75.20
2018-06-08T11:30:55.477Z,80.40
2018-06-08T11:33:23.747Z,84.87
2018-06-08T11:35:52.009Z,88.00
2018-06-08T11:38:20.314Z,91.00
2018-06-08T11:40:48.586Z,86.50
2018-06-08T11:43:16.881Z,87.15
2018-06-08T11:45:45.154Z,86.35
2018-06-08T11:48:13.424Z,94.22
2018-06-08T11:50:41.687Z,101.73
2018-06-08T11:53:09.946Z,110.72
2018-06-08T11:55:38.195Z,99.80
2018-06-08T11:58:06.433Z,105.22
2018-06-08T12:00:34.732Z,101.20
2018-06-08T12:03:02.998Z,99.30
2018-06-08T12:05:31.263Z,91.80
2018-06-08T12:07:59.831Z,94.97
2018-06-08T12:10:28.109Z,95.35
2018-06-08T12:12:56.375Z,89.30
2018-06-08T12:15:24.644Z,93.55
2018-06-08T12:17:52.899Z,85.42
2018-06-08T12:20:21.280Z,77.15
2018-06-08T12:22:49.579Z,87.65
2018-06-08T12:25:17.839Z,94.20
2018-06-08T12:27:46.129Z,86.57
2018-06-08T12:30:14.126Z,83.30
2018-06-08T12:32:42.438Z,88.00
2018-06-08T12:35:10.686Z,79.40
2018-06-08T12:37:38.950Z,80.05
2018-06-08T12:40:07.199Z,68.78
2018-06-08T12:42:35.491Z,68.40
2018-06-08T12:45:03.784Z,67.78
2018-06-08T12:47:32.027Z,73.60
2018-06-08T12:50:00.264Z,60.23
2018-06-08T12:52:28.555Z,62.95
2018-06-08T12:54:56.826Z,59.45
2018-06-08T12:57:25.088Z,59.65
2018-06-08T12:59:53.341Z,59.08
2018-06-08T13:02:21.594Z,61.00
2018-06-08T13:04:49.868Z,56.90
2018-06-08T13:07:18.108Z,57.13
2018-06-08T13:09:46.443Z,57.48
2018-06-08T13:12:14.401Z,56.10
2018-06-08T13:14:42.696Z,53.38
2018-06-08T13:17:10.954Z,55.63
2018-06-08T13:19:39.285Z,51.60
2018-06-08T13:22:07.524Z,51.05
2018-06-08T13:24:35.790Z,50.08
2018-06-08T13:27:04.378Z,50.85
2018-06-08T13:29:32.660Z,50.52
2018-06-08T13:32:00.913Z,50.30
2018-06-08T13:34:28.922Z,52.25
2018-06-08T13:36:57.157Z,49.35
2018-06-08T13:39:25.419Z,47.43
2018-06-08T13:41:53.639Z,46.20
2018-06-08T13:44:21.871Z,42.20
2018-06-08T13:46:50.102Z,41.70
2018-06-08T13:49:18.367Z,39.65
2018-06-08T13:51:46.635Z,39.80
2018-06-08T13:54:14.910Z,38.53
2018-06-08T13:56:43.148Z,39.48
2018-06-08T13:59:11.422Z,39.57
2018-06-08T14:01:39.644Z,41.88
2018-06-08T14:04:07.642Z,42.15
2018-06-08T14:06:35.904Z,43.90
2018-06-08T14:09:05.657Z,45.48
2018-06-08T14:11:33.958Z,44.40
2018-06-08T14:14:02.200Z,46.28
2018-06-08T14:16:30.496Z,46.50
2018-06-08T14:18:58.739Z,47.73
2018-06-08T14:21:26.985Z,44.23
2018-06-08T14:23:55.234Z,45.10
2018-06-08T14:26:23.598Z,46.28
2018-06-08T14:28:51.845Z,45.05
2018-06-08T14:31:20.128Z,44.80
2018-06-08T14:33:48.374Z,45.78
2018-06-08T14:36:16.658Z,42.62
2018-06-08T14:38:44.899Z,41.53
2018-06-08T14:41:12.903Z,37.33
2018-06-08T14:43:41.183Z,35.52
2018-06-08T14:46:09.434Z,35.25
2018-06-08T14:48:37.676Z,33.05
2018-06-08T14:51:05.940Z,33.00
2018-06-08T14:53:34.264Z,34.03
2018-06-08T14:56:02.507Z,32.88
2018-06-08T14:58:30.490Z,35.30
2018-06-08T15:00:58.518Z,35.23
2018-06-08T15:03:26.789Z,35.17
2018-06-08T15:05:55.070Z,35.78
2018-06-08T15:08:23.363Z,35.85
2018-06-08T15:10:51.629Z,36.58
2018-06-08T15:13:19.884Z,35.73
2018-06-08T15:15:48.151Z,35.15
2018-06-08T15:18:16.391Z,34.43
2018-06-08T15:20:44.694Z,34.77
2018-06-08T15:23:12.944Z,34.00
2018-06-08T15:25:41.206Z,32.28
2018-06-08T15:28:09.490Z,33.13
2018-06-08T15:30:37.808Z,32.53
2018-06-08T15:33:06.107Z,32.10
2018-06-08T15:35:34.375Z,31.12
2018-06-08T15:38:02.639Z,30.30
2018-06-08T15:40:32.060Z,29.77
2018-06-08T15:43:00.082Z,30.10
2018-06-08T15:45:28.434Z,28.05
2018-06-08T15:47:56.734Z,27.15
2018-06-08T15:50:25.016Z,25.00
2018-06-08T15:52:53.732Z,26.10
2018-06-08T15:55:22.101Z,26.37
2018-06-08T15:57:50.435Z,25.65
2018-06-08T16:00:18.705Z,26.57
2018-06-08T16:02:46.986Z,28.00
2018-06-08T16:05:15.223Z,25.92
2018-06-08T16:07:43.563Z,26.00
2018-06-08T16:10:11.838Z,25.57
2018-06-08T16:12:40.126Z,25.30
2018-06-08T16:15:08.438Z,24.50
2018-06-08T16:17:36.724Z,25.30
2018-06-08T16:20:04.986Z,25.00
2018-06-08T16:22:33.279Z,25.55
2018-06-08T16:25:01.544Z,25.57
2018-06-08T16:27:29.830Z,25.72
2018-06-08T16:29:58.467Z,23.80
2018-06-08T16:32:26.813Z,23.50
2018-06-08T16:34:55.067Z,22.80
2018-06-08T16:37:23.379Z,22.80
2018-06-08T16:39:51.400Z,22.22
2018-06-08T16:42:19.626Z,22.70
2018-06-08T16:44:47.902Z,21.35
2018-06-08T16:47:16.157Z,23.65
2018-06-08T16:49:44.434Z,23.90
2018-06-08T16:52:12.693Z,29.18
2018-06-08T16:54:40.702Z,25.50
2018-06-08T16:57:08.990Z,22.93
2018-06-08T16:59:37.242Z,23.32
2018-06-08T17:02:05.484Z,24.40
2018-06-08T17:04:33.744Z,26.05
2018-06-08T17:07:01.984Z,24.72
2018-06-08T17:09:30.269Z,21.50
2018-06-08T17:11:58.547Z,21.48
2018-06-08T17:14:26.775Z,21.30
2018-06-08T17:16:55.078Z,21.62
2018-06-08T17:21:35.227Z,20.77
2018-06-08T17:24:03.461Z,23.25
2018-06-08T17:26:31.431Z,21.82
2018-06-08T17:28:59.708Z,24.20
2018-06-08T17:31:28.025Z,21.40
2018-06-08T17:33:56.282Z,21.80
2018-06-08T17:36:24.527Z,22.30
2018-06-08T17:38:52.907Z,24.02
2018-06-08T17:41:21.214Z,35.70
2018-06-08T17:43:49.475Z,29.30
2018-06-08T17:46:17.748Z,26.75
2018-06-08T17:48:46.051Z,26.62
2018-06-08T17:51:14.313Z,26.50
2018-06-08T17:53:42.617Z,26.15
2018-06-08T17:56:10.595Z,27.53
2018-06-08T17:58:38.877Z,28.50
2018-06-08T18:01:07.131Z,28.47
2018-06-08T18:03:35.375Z,29.92
2018-06-08T18:06:03.649Z,31.52
2018-06-08T18:08:31.949Z,29.48
2018-06-08T18:11:00.246Z,29.20
2018-06-08T18:13:28.506Z,30.50
2018-06-08T18:15:56.760Z,30.25
2018-06-08T18:18:25.078Z,31.30
2018-06-08T18:20:53.135Z,30.57
2018-06-08T18:23:21.405Z,31.68
2018-06-08T18:25:49.759Z,31.10
2018-06-08T18:28:18.009Z,29.70
2018-06-08T18:30:46.390Z,30.12
2018-06-08T18:33:14.693Z,35.00
2018-06-08T18:35:42.980Z,34.40
2018-06-08T18:38:11.221Z,37.05
2018-06-08T18:40:39.484Z,33.15
2018-06-08T18:43:07.498Z,32.23
2018-06-08T18:45:35.765Z,33.30
2018-06-08T18:48:04.020Z,31.82
2018-06-08T18:50:32.294Z,32.60
2018-06-08T18:53:00.536Z,32.70
2018-06-08T18:55:28.816Z,33.20
2018-06-08T18:57:57.066Z,33.88
2018-06-08T19:00:25.304Z,33.47
2018-06-08T19:02:53.583Z,33.70
2018-06-08T19:05:21.969Z,33.90
2018-06-08T19:07:50.194Z,33.53
2018-06-08T19:10:18.462Z,34.60
2018-06-08T19:12:46.759Z,33.83
2018-06-08T19:15:15.026Z,34.90
2018-06-08T19:17:43.347Z,34.60
2018-06-08T19:20:11.606Z,35.15
2018-06-08T19:22:39.859Z,34.55
2018-06-08T19:25:08.120Z,36.50
2018-06-08T19:27:36.377Z,36.63
2018-06-08T19:30:04.869Z,36.55
2018-06-08T19:32:33.460Z,36.60
2018-06-08T19:35:01.697Z,37.25
2018-06-08T19:37:29.958Z,37.17
2018-06-08T19:39:58.164Z,37.35
2018-06-08T19:42:26.477Z,37.73
2018-06-08T19:44:54.782Z,38.55
2018-06-08T19:47:22.770Z,38.83
2018-06-08T19:49:51.371Z,39.25
2018-06-08T19:52:19.632Z,39.42
2018-06-08T19:54:47.922Z,39.67
2018-06-08T19:57:16.211Z,39.95
2018-06-08T19:59:44.500Z,39.60
2018-06-08T20:02:12.791Z,39.23
2018-06-08T20:04:41.063Z,40.12
2018-06-08T20:07:09.306Z,40.27
2018-06-08T20:09:37.664Z,39.45
2018-06-08T20:12:05.921Z,40.03
2018-06-08T20:14:34.144Z,40.90
2018-06-08T20:17:02.718Z,40.83
2018-06-08T20:19:31.055Z,40.67
2018-06-08T20:21:59.297Z,42.35
2018-06-08T20:24:27.535Z,42.50
2018-06-08T20:26:55.775Z,44.63
2018-06-08T20:29:24.058Z,44.20
2018-06-08T20:31:52.329Z,46.33
2018-06-08T20:34:20.595Z,45.75
2018-06-08T20:36:48.851Z,46.35
2018-06-08T20:39:17.135Z,47.85
2018-06-08T20:41:45.127Z,47.83
2018-06-08T20:44:13.138Z,48.20
2018-06-08T20:46:41.376Z,48.60
2018-06-08T20:49:09.672Z,47.35
2018-06-08T20:51:37.975Z,50.03
2018-06-08T20:54:06.259Z,49.40
2018-06-08T20:56:34.548Z,47.03
2018-06-08T20:59:02.827Z,46.73
2018-06-08T21:01:31.141Z,45.50
2018-06-08T21:03:59.360Z,47.60
2018-06-08T21:06:27.639Z,46.35
2018-06-08T21:08:55.935Z,45.80
2018-06-08T21:11:24.229Z,46.20
2018-06-08T21:13:52.489Z,45.98
2018-06-08T21:16:20.742Z,44.98
2018-06-08T21:18:48.969Z,43.60
2018-06-08T21:21:17.235Z,45.95
2018-06-08T21:23:45.273Z,43.23
2018-06-08T21:26:13.530Z,42.48
2018-06-08T21:28:41.769Z,43.10
2018-06-08T21:31:10.045Z,47.25
2018-06-08T21:33:38.255Z,48.05
2018-06-08T21:36:06.253Z,48.43
2018-06-08T21:38:34.510Z,48.15
2018-06-08T21:41:02.750Z,46.80
2018-06-08T21:43:31.034Z,48.35
2018-06-08T21:45:59.259Z,47.53
2018-06-08T21:48:27.496Z,49.63
2018-06-08T21:50:55.760Z,48.17
2018-06-08T21:53:24.038Z,46.02
2018-06-08T21:55:52.279Z,46.60
2018-06-08T21:58:20.559Z,46.05
2018-06-08T22:00:48.827Z,43.38
2018-06-08T22:03:16.835Z,43.50
2018-06-08T22:05:45.171Z,42.23
2018-06-08T22:09:19.245Z,40.83
2018-06-08T22:11:47.540Z,40.43
2018-06-08T22:14:15.834Z,39.35
2018-06-08T22:16:44.107Z,47.62
2018-06-08T22:19:12.333Z,43.92
2018-06-08T22:21:40.608Z,40.38
2018-06-08T22:24:08.888Z,40.75
2018-06-08T22:26:37.115Z,40.58
2018-06-08T22:29:05.551Z,38.60
2018-06-08T22:31:34.432Z,43.00
2018-06-08T22:34:02.423Z,40.80
2018-06-08T22:36:30.719Z,40.20
2018-06-08T22:38:59.015Z,38.85
2018-06-08T22:41:27.275Z,40.45
2018-06-08T22:43:55.518Z,39.30
2018-06-08T22:46:23.769Z,38.67
2018-06-08T22:48:52.030Z,37.30
2018-06-08T22:51:20.357Z,37.48
2018-06-08T22:53:48.702Z,41.75
2018-06-08T22:56:17.378Z,40.63
2018-06-08T22:58:45.726Z,38.35
2018-06-08T23:01:13.990Z,38.17
2018-06-08T23:03:42.243Z,37.10
2018-06-08T23:06:10.497Z,35.90
2018-06-08T23:08:38.964Z,36.77
2018-06-08T23:11:07.206Z,34.83
2018-06-08T23:13:35.520Z,34.70
2018-06-08T23:16:03.786Z,34.08
2018-06-08T23:18:32.039Z,34.45
2018-06-08T23:21:00.328Z,42.43
2018-06-08T23:23:28.606Z,38.50
2018-06-08T23:25:56.866Z,34.00
2018-06-08T23:28:25.367Z,33.38
2018-06-08T23:30:53.662Z,33.90
2018-06-08T23:33:21.887Z,35.20
2018-06-08T23:35:50.142Z,35.85
2018-06-08T23:38:18.420Z,33.88
2018-06-08T23:40:46.706Z,32.93
2018-06-08T23:43:14.969Z,30.20
2018-06-08T23:45:43.202Z,30.70
2018-06-08T23:48:11.441Z,26.47
2018-06-08T23:50:39.662Z,27.07
2018-06-08T23:53:07.923Z,26.10
2018-06-08T23:55:36.174Z,25.52
2018-06-08T23:58:04.452Z,24.57
